Washington, NC

8:22 PM EDT on October 01, 2014 (GMT -0400)
Warren | Change Station
CLOSE
Current Station
Airport
Location: Washington,
Elevation: 39 ft
Nearby Weather Stations

Elev 39 ft 35.57 °N, 77.05 °W | Updated 7 minutes ago

Clear
Clear
67 °F
Feels Like 67 °F
N
0
Wind Variable Wind from North

Today
High -- | Low -- °F
--% Chance of Precip.
Yesterday
High -- | Low -- °F
Precip. -- in
7:03 AM 6:51 PM
First Quarter, 52% visible
Pressure 30.01 in
Visibility 10.0 miles
Clouds Clear
Dew Point 64 °F
Humidity 90%
Rainfall 0.00 in
Snow Depth Not available.
UV 0 out of 12
Pollen 3.70 out of 12
Air Quality Not available.
Flu Activity Not available.
METAR KOCW 020015Z AUTO 00000KT 10SM CLR 20/18 A3001 RMK AO2 T01960179

More Conditions Fewer Conditions

Pressure 30.01 in
Visibility 10.0 miles
Clouds Clear
Dew Point 64 °F
Humidity 90%
Rainfall 0.00 in
Snow Depth Not available.
UV 0 out of 12
Pollen 3.70 out of 12
Air Quality Not available.
Flu Activity Not available.
METAR KOCW 020015Z AUTO 00000KT 10SM CLR 20/18 A3001 RMK AO2 T01960179

More Conditions Fewer Conditions

10-Day Weather Forecast

Almanac

Astronomy

Oct. 01, 2014 Rise Set
Actual Time 7:03 AM EDT 6:51 PM EDT
Civil Twilight 6:37 AM EDT 7:17 PM EDT
Nautical Twilight 6:08 AM EDT 7:46 PM EDT
Astronomical Twilight 5:38 AM EDT 8:16 PM EDT
Moon 1:53 PM EDT (10/1) No Moon Set
Length of Visible Light 12h 39m
Length of Day
11h 48m
Tomorrow will be 2m 13s shorter.
First Quarter, 52% of the Moon is Illuminated
Today
First Quarter
Oct 8
Full
Oct 15
Last Quarter
Oct 23
New
Oct 30
First Quarter

Today's Extremes

State Highs State Lows

Community

WunderPhotos

Upload Photos

1,758,097 photos uploaded!

WunderBlogs® & News

Nearby

Snow Depth

Station Depth Elevation
No new snow has been reported.

Earthquake Activity

City Distance Mag. Time & Date
No recent earthquake activity has been reported nearby.
Minimum magnitude displayed is 2.5.

Coastal Water Temperatures

Place Temperature
No Stations Reporting

Nearby Weather Stations